Louisville International Standiford Field
KSDF : now visible

Airfield :











YOU CAN JOIN US ON...

 
LOGIN :

Register | Disclaimer

   EN    FR    IT 

 









Legend :    VFR   Marginal VFR   IFR   Intensive IFR   Very Intensive IFR
Visi :
Ceiling :
>= 8 km
>= 3000ft
5 to 8 km
1000 to 3000 ft
1500m to 5 km
500 to 1000 ft
800 to 1500m
200 to 500 ft
< 800m
< 200 ft
Symbols :   Thunderstorms  Fog  Heavy snow  Heavy precipitations  Wind > 20 kt






- Airport Elevation : 501 ft
- IATA code : SDF


KSDF - Louisville International Standiford Field

CURRENT METAR :
  • 191556Z 36007KT 10SM BKN250 03/M03 A3054 RMK AO2 SLP344 T00331033

EXPIRED METARs :
  • 191456Z 02004KT 10SM FEW250 01/M04 A3053 RMK AO2 SLP343 T00111039 52021
  • 191356Z 02008KT 8SM FEW250 00/M04 A3052 RMK AO2 SLP337 T00001039

TAF KSDF
Valid from the 19 at 12:00 until the 20 at 18:00 UTC


191123Z 1912/2018 01008KT P6SM FEW180
FM200200 02005KT P6SM BKN250
FM201300 02008KT P6SM BKN090



MET'MAP, your aeronautical weather chart ! - Copyright ORBIFLY December 2007 - Disclaimer

ORBIFLY MET'MAP TEAM :

Programming & Development : Alexandra Zaïnal
Concept & original design : Baudouin d'Aumeries
Assistance for programming : Marc-Olivier Méhu
Technical & hardware support : Manuel Goepfert

Contact : metmap@orbifly.com




SOURCES & CREDITS :

   NOAA       Earth
Advisory